<?xml version="1.0" encoding="UTF-8" standalone="no" ?>
<gpx xmlns="http://www.topografix.com/GPX/1/1" xmlns:xsi="http://www.w3.org/2001/XMLSchema-instance" xsi:schemaLocation="http://www.topografix.com/GPX/1/1 http://www.topografix.com/GPX/1/1/gpx.xsd" version="1.1" creator="VisuGPX - https://www.visugpx.com">
  <metadata>
    <name>Parcours voiture algarve 1</name>
    <desc><![CDATA[Parcours voiture algarve 1]]></desc>
  </metadata>
  <trk>
    <name><![CDATA[ACTIVE LOG185550]]></name>
    <trkseg>
      <trkpt lat="37.11981" lon="-8.53543">
        <ele>36.664</ele>
        <time>2011-08-05T16:55:49Z</time>
      </trkpt>
      <trkpt lat="37.11952" lon="-8.53508">
        <ele>27.937</ele>
        <time>2011-08-05T16:57:37Z</time>
      </trkpt>
      <trkpt lat="37.11937" lon="-8.53508">
        <ele>32.156</ele>
        <time>2011-08-05T16:57:59Z</time>
      </trkpt>
      <trkpt lat="37.11938" lon="-8.53506">
        <ele>31.242</ele>
        <time>2011-08-05T16:58:21Z</time>
      </trkpt>
      <trkpt lat="37.11943" lon="-8.53506">
        <ele>31.016</ele>
        <time>2011-08-05T16:58:36Z</time>
      </trkpt>
      <trkpt lat="37.11944" lon="-8.5352">
        <ele>30.616</ele>
        <time>2011-08-05T16:58:42Z</time>
      </trkpt>
      <trkpt lat="37.11949" lon="-8.53543">
        <ele>31.13</ele>
        <time>2011-08-05T16:58:47Z</time>
      </trkpt>
      <trkpt lat="37.11951" lon="-8.53554">
        <ele>31.024</ele>
        <time>2011-08-05T16:58:49Z</time>
      </trkpt>
      <trkpt lat="37.11968" lon="-8.5361">
        <ele>28.131</ele>
        <time>2011-08-05T16:59:02Z</time>
      </trkpt>
      <trkpt lat="37.11971" lon="-8.53609">
        <ele>28.013</ele>
        <time>2011-08-05T16:59:04Z</time>
      </trkpt>
      <trkpt lat="37.11998" lon="-8.536">
        <ele>35.552</ele>
        <time>2011-08-05T16:59:12Z</time>
      </trkpt>
      <trkpt lat="37.12089" lon="-8.53568">
        <ele>32.988</ele>
        <time>2011-08-05T16:59:22Z</time>
      </trkpt>
      <trkpt lat="37.12118" lon="-8.53557">
        <ele>30.813</ele>
        <time>2011-08-05T16:59:26Z</time>
      </trkpt>
      <trkpt lat="37.12147" lon="-8.53534">
        <ele>24.71</ele>
        <time>2011-08-05T16:59:30Z</time>
      </trkpt>
      <trkpt lat="37.12192" lon="-8.5351">
        <ele>19.773</ele>
        <time>2011-08-05T16:59:38Z</time>
      </trkpt>
      <trkpt lat="37.12205" lon="-8.53558">
        <ele>18.49</ele>
        <time>2011-08-05T16:59:44Z</time>
      </trkpt>
      <trkpt lat="37.12196" lon="-8.5364">
        <ele>17.695</ele>
        <time>2011-08-05T16:59:51Z</time>
      </trkpt>
      <trkpt lat="37.12167" lon="-8.53827">
        <ele>17.928</ele>
        <time>2011-08-05T17:00:03Z</time>
      </trkpt>
      <trkpt lat="37.12131" lon="-8.53984">
        <ele>21.38</ele>
        <time>2011-08-05T17:00:13Z</time>
      </trkpt>
      <trkpt lat="37.12112" lon="-8.54049">
        <ele>22.577</ele>
        <time>2011-08-05T17:00:19Z</time>
      </trkpt>
      <trkpt lat="37.12087" lon="-8.54127">
        <ele>22.665</ele>
        <time>2011-08-05T17:00:28Z</time>
      </trkpt>
      <trkpt lat="37.12034" lon="-8.54286">
        <ele>22.9</ele>
        <time>2011-08-05T17:00:40Z</time>
      </trkpt>
      <trkpt lat="37.12005" lon="-8.5435">
        <ele>23.581</ele>
        <time>2011-08-05T17:00:48Z</time>
      </trkpt>
      <trkpt lat="37.12" lon="-8.54361">
        <ele>24.124</ele>
        <time>2011-08-05T17:00:50Z</time>
      </trkpt>
      <trkpt lat="37.1199" lon="-8.54383">
        <ele>24.23</ele>
        <time>2011-08-05T17:00:53Z</time>
      </trkpt>
      <trkpt lat="37.11977" lon="-8.54415">
        <ele>25.32</ele>
        <time>2011-08-05T17:00:57Z</time>
      </trkpt>
      <trkpt lat="37.11952" lon="-8.54485">
        <ele>25.757</ele>
        <time>2011-08-05T17:01:06Z</time>
      </trkpt>
      <trkpt lat="37.11941" lon="-8.54526">
        <ele>25.738</ele>
        <time>2011-08-05T17:01:10Z</time>
      </trkpt>
      <trkpt lat="37.11915" lon="-8.54685">
        <ele>26.972</ele>
        <time>2011-08-05T17:01:21Z</time>
      </trkpt>
      <trkpt lat="37.11915" lon="-8.54863">
        <ele>25.353</ele>
        <time>2011-08-05T17:01:33Z</time>
      </trkpt>
      <trkpt lat="37.1193" lon="-8.5495">
        <ele>25.261</ele>
        <time>2011-08-05T17:01:43Z</time>
      </trkpt>
      <trkpt lat="37.11934" lon="-8.54971">
        <ele>25.754</ele>
        <time>2011-08-05T17:01:46Z</time>
      </trkpt>
      <trkpt lat="37.11951" lon="-8.55007">
        <ele>26.602</ele>
        <time>2011-08-05T17:01:51Z</time>
      </trkpt>
      <trkpt lat="37.12014" lon="-8.55027">
        <ele>26.635</ele>
        <time>2011-08-05T17:02:01Z</time>
      </trkpt>
      <trkpt lat="37.12024" lon="-8.55025">
        <ele>26.632</ele>
        <time>2011-08-05T17:02:02Z</time>
      </trkpt>
      <trkpt lat="37.12175" lon="-8.54965">
        <ele>30.934</ele>
        <time>2011-08-05T17:02:16Z</time>
      </trkpt>
      <trkpt lat="37.12266" lon="-8.54931">
        <ele>34.532</ele>
        <time>2011-08-05T17:02:25Z</time>
      </trkpt>
      <trkpt lat="37.12432" lon="-8.54869">
        <ele>43.144</ele>
        <time>2011-08-05T17:02:38Z</time>
      </trkpt>
      <trkpt lat="37.12462" lon="-8.54858">
        <ele>45.327</ele>
        <time>2011-08-05T17:02:41Z</time>
      </trkpt>
      <trkpt lat="37.12499" lon="-8.54829">
        <ele>47.609</ele>
        <time>2011-08-05T17:02:45Z</time>
      </trkpt>
      <trkpt lat="37.12508" lon="-8.54814">
        <ele>46.111</ele>
        <time>2011-08-05T17:02:47Z</time>
      </trkpt>
      <trkpt lat="37.12558" lon="-8.54826">
        <ele>47.085</ele>
        <time>2011-08-05T17:02:52Z</time>
      </trkpt>
      <trkpt lat="37.12672" lon="-8.5478">
        <ele>47.049</ele>
        <time>2011-08-05T17:03:01Z</time>
      </trkpt>
      <trkpt lat="37.12842" lon="-8.54707">
        <ele>46.964</ele>
        <time>2011-08-05T17:03:14Z</time>
      </trkpt>
      <trkpt lat="37.12968" lon="-8.54623">
        <ele>45.813</ele>
        <time>2011-08-05T17:03:25Z</time>
      </trkpt>
      <trkpt lat="37.13019" lon="-8.54587">
        <ele>48.606</ele>
        <time>2011-08-05T17:03:32Z</time>
      </trkpt>
      <trkpt lat="37.13024" lon="-8.54584">
        <ele>48.546</ele>
        <time>2011-08-05T17:03:40Z</time>
      </trkpt>
      <trkpt lat="37.13044" lon="-8.54571">
        <ele>48.621</ele>
        <time>2011-08-05T17:04:17Z</time>
      </trkpt>
      <trkpt lat="37.13077" lon="-8.54551">
        <ele>49.943</ele>
        <time>2011-08-05T17:04:32Z</time>
      </trkpt>
      <trkpt lat="37.131" lon="-8.54541">
        <ele>41.19</ele>
        <time>2011-08-05T17:04:43Z</time>
      </trkpt>
      <trkpt lat="37.13118" lon="-8.54533">
        <ele>35.612</ele>
        <time>2011-08-05T17:04:58Z</time>
      </trkpt>
      <trkpt lat="37.13149" lon="-8.54523">
        <ele>33.844</ele>
        <time>2011-08-05T17:05:14Z</time>
      </trkpt>
      <trkpt lat="37.13165" lon="-8.5452">
        <ele>39.925</ele>
        <time>2011-08-05T17:05:27Z</time>
      </trkpt>
      <trkpt lat="37.13191" lon="-8.54515">
        <ele>31.485</ele>
        <time>2011-08-05T17:05:41Z</time>
      </trkpt>
      <trkpt lat="37.13208" lon="-8.54512">
        <ele>30.654</ele>
        <time>2011-08-05T17:05:59Z</time>
      </trkpt>
      <trkpt lat="37.13213" lon="-8.54511">
        <ele>28.257</ele>
        <time>2011-08-05T17:06:11Z</time>
      </trkpt>
      <trkpt lat="37.13218" lon="-8.5451">
        <ele>28.615</ele>
        <time>2011-08-05T17:06:26Z</time>
      </trkpt>
      <trkpt lat="37.13218" lon="-8.5451">
        <ele>27.028</ele>
        <time>2011-08-05T17:06:58Z</time>
      </trkpt>
      <trkpt lat="37.13218" lon="-8.5451">
        <ele>24.063</ele>
        <time>2011-08-05T17:07:12Z</time>
      </trkpt>
      <trkpt lat="37.13277" lon="-8.54504">
        <ele>23.482</ele>
        <time>2011-08-05T17:07:17Z</time>
      </trkpt>
      <trkpt lat="37.13302" lon="-8.54505">
        <ele>23.413</ele>
        <time>2011-08-05T17:07:19Z</time>
      </trkpt>
      <trkpt lat="37.13453" lon="-8.54539">
        <ele>24.758</ele>
        <time>2011-08-05T17:07:34Z</time>
      </trkpt>
      <trkpt lat="37.136" lon="-8.54568">
        <ele>26.184</ele>
        <time>2011-08-05T17:07:46Z</time>
      </trkpt>
      <trkpt lat="37.13699" lon="-8.54593">
        <ele>27.296</ele>
        <time>2011-08-05T17:07:55Z</time>
      </trkpt>
      <trkpt lat="37.13833" lon="-8.54618">
        <ele>25.252</ele>
        <time>2011-08-05T17:08:08Z</time>
      </trkpt>
      <trkpt lat="37.13898" lon="-8.54633">
        <ele>23.641</ele>
        <time>2011-08-05T17:08:18Z</time>
      </trkpt>
      <trkpt lat="37.13905" lon="-8.54636">
        <ele>21.868</ele>
        <time>2011-08-05T17:08:26Z</time>
      </trkpt>
      <trkpt lat="37.13918" lon="-8.54617">
        <ele>22.62</ele>
        <time>2011-08-05T17:08:29Z</time>
      </trkpt>
      <trkpt lat="37.13942" lon="-8.54634">
        <ele>25.038</ele>
        <time>2011-08-05T17:08:35Z</time>
      </trkpt>
      <trkpt lat="37.13951" lon="-8.54649">
        <ele>26.173</ele>
        <time>2011-08-05T17:08:38Z</time>
      </trkpt>
      <trkpt lat="37.14021" lon="-8.54681">
        <ele>21.906</ele>
        <time>2011-08-05T17:08:47Z</time>
      </trkpt>
      <trkpt lat="37.14134" lon="-8.5471">
        <ele>16.188</ele>
        <time>2011-08-05T17:08:57Z</time>
      </trkpt>
      <trkpt lat="37.14287" lon="-8.54814">
        <ele>17.239</ele>
        <time>2011-08-05T17:09:12Z</time>
      </trkpt>
      <trkpt lat="37.14315" lon="-8.54829">
        <ele>18.665</ele>
        <time>2011-08-05T17:09:20Z</time>
      </trkpt>
      <trkpt lat="37.14334" lon="-8.54838">
        <ele>20.361</ele>
        <time>2011-08-05T17:09:28Z</time>
      </trkpt>
      <trkpt lat="37.1439" lon="-8.54851">
        <ele>21.794</ele>
        <time>2011-08-05T17:09:42Z</time>
      </trkpt>
      <trkpt lat="37.14482" lon="-8.54894">
        <ele>24.439</ele>
        <time>2011-08-05T17:09:53Z</time>
      </trkpt>
      <trkpt lat="37.14595" lon="-8.54903">
        <ele>24.843</ele>
        <time>2011-08-05T17:10:04Z</time>
      </trkpt>
      <trkpt lat="37.14709" lon="-8.54875">
        <ele>23.565</ele>
        <time>2011-08-05T17:10:15Z</time>
      </trkpt>
      <trkpt lat="37.14753" lon="-8.54854">
        <ele>21.384</ele>
        <time>2011-08-05T17:10:21Z</time>
      </trkpt>
      <trkpt lat="37.14796" lon="-8.54831">
        <ele>19.558</ele>
        <time>2011-08-05T17:10:27Z</time>
      </trkpt>
      <trkpt lat="37.14825" lon="-8.54812">
        <ele>18.125</ele>
        <time>2011-08-05T17:10:35Z</time>
      </trkpt>
      <trkpt lat="37.14827" lon="-8.54809">
        <ele>17.803</ele>
        <time>2011-08-05T17:10:36Z</time>
      </trkpt>
      <trkpt lat="37.1484" lon="-8.54788">
        <ele>16.641</ele>
        <time>2011-08-05T17:10:40Z</time>
      </trkpt>
      <trkpt lat="37.14861" lon="-8.54791">
        <ele>16.616</ele>
        <time>2011-08-05T17:10:46Z</time>
      </trkpt>
      <trkpt lat="37.14911" lon="-8.54862">
        <ele>19.404</ele>
        <time>2011-08-05T17:10:54Z</time>
      </trkpt>
      <trkpt lat="37.14958" lon="-8.54937">
        <ele>22.535</ele>
        <time>2011-08-05T17:11:03Z</time>
      </trkpt>
      <trkpt lat="37.14991" lon="-8.54998">
        <ele>24.604</ele>
        <time>2011-08-05T17:11:15Z</time>
      </trkpt>
      <trkpt lat="37.15017" lon="-8.55049">
        <ele>27.368</ele>
        <time>2011-08-05T17:11:26Z</time>
      </trkpt>
      <trkpt lat="37.15044" lon="-8.55102">
        <ele>30.377</ele>
        <time>2011-08-05T17:11:36Z</time>
      </trkpt>
      <trkpt lat="37.15089" lon="-8.55199">
        <ele>32.633</ele>
        <time>2011-08-05T17:11:48Z</time>
      </trkpt>
      <trkpt lat="37.15113" lon="-8.55268">
        <ele>32.029</ele>
        <time>2011-08-05T17:11:58Z</time>
      </trkpt>
      <trkpt lat="37.15136" lon="-8.55342">
        <ele>31.844</ele>
        <time>2011-08-05T17:12:11Z</time>
      </trkpt>
      <trkpt lat="37.15145" lon="-8.5537">
        <ele>31.84</ele>
        <time>2011-08-05T17:12:16Z</time>
      </trkpt>
      <trkpt lat="37.15173" lon="-8.55461">
        <ele>31.315</ele>
        <time>2011-08-05T17:12:29Z</time>
      </trkpt>
      <trkpt lat="37.15175" lon="-8.55467">
        <ele>31.106</ele>
        <time>2011-08-05T17:12:30Z</time>
      </trkpt>
      <trkpt lat="37.15201" lon="-8.5556">
        <ele>31.767</ele>
        <time>2011-08-05T17:12:45Z</time>
      </trkpt>
      <trkpt lat="37.15216" lon="-8.55641">
        <ele>29.758</ele>
        <time>2011-08-05T17:12:56Z</time>
      </trkpt>
      <trkpt lat="37.15221" lon="-8.55739">
        <ele>31.099</ele>
        <time>2011-08-05T17:13:06Z</time>
      </trkpt>
      <trkpt lat="37.15239" lon="-8.55829">
        <ele>29.56</ele>
        <time>2011-08-05T17:13:16Z</time>
      </trkpt>
      <trkpt lat="37.1529" lon="-8.55933">
        <ele>29.871</ele>
        <time>2011-08-05T17:13:24Z</time>
      </trkpt>
      <trkpt lat="37.15388" lon="-8.55998">
        <ele>31.852</ele>
        <time>2011-08-05T17:13:33Z</time>
      </trkpt>
      <trkpt lat="37.15429" lon="-8.56013">
        <ele>33.553</ele>
        <time>2011-08-05T17:13:39Z</time>
      </trkpt>
      <trkpt lat="37.15514" lon="-8.5604">
        <ele>38.585</ele>
        <time>2011-08-05T17:13:47Z</time>
      </trkpt>
      <trkpt lat="37.15597" lon="-8.56073">
        <ele>42.677</ele>
        <time>2011-08-05T17:13:54Z</time>
      </trkpt>
      <trkpt lat="37.15687" lon="-8.56154">
        <ele>45.594</ele>
        <time>2011-08-05T17:14:04Z</time>
      </trkpt>
      <trkpt lat="37.15813" lon="-8.5627">
        <ele>37.526</ele>
        <time>2011-08-05T17:14:16Z</time>
      </trkpt>
      <trkpt lat="37.15852" lon="-8.56366">
        <ele>33.497</ele>
        <time>2011-08-05T17:14:22Z</time>
      </trkpt>
      <trkpt lat="37.1585" lon="-8.56478">
        <ele>31.002</ele>
        <time>2011-08-05T17:14:28Z</time>
      </trkpt>
      <trkpt lat="37.15804" lon="-8.56569">
        <ele>30.292</ele>
        <time>2011-08-05T17:14:33Z</time>
      </trkpt>
      <trkpt lat="37.15685" lon="-8.56739">
        <ele>27.291</ele>
        <time>2011-08-05T17:14:42Z</time>
      </trkpt>
      <trkpt lat="37.15658" lon="-8.5687">
        <ele>23.024</ele>
        <time>2011-08-05T17:14:48Z</time>
      </trkpt>
      <trkpt lat="37.15698" lon="-8.56978">
        <ele>16.136</ele>
        <time>2011-08-05T17:14:53Z</time>
      </trkpt>
      <trkpt lat="37.15711" lon="-8.56997">
        <ele>14.114</ele>
        <time>2011-08-05T17:14:54Z</time>
      </trkpt>
      <trkpt lat="37.15812" lon="-8.57107">
        <ele>2.15</ele>
        <time>2011-08-05T17:15:02Z</time>
      </trkpt>
      <trkpt lat="37.15836" lon="-8.57134">
        <ele>-0.389</ele>
        <time>2011-08-05T17:15:05Z</time>
      </trkpt>
      <trkpt lat="37.15863" lon="-8.57143">
        <ele>0.588</ele>
        <time>2011-08-05T17:15:10Z</time>
      </trkpt>
      <trkpt lat="37.15864" lon="-8.57139">
        <ele>7.053</ele>
        <time>2011-08-05T17:15:19Z</time>
      </trkpt>
      <trkpt lat="37.15917" lon="-8.57099">
        <ele>6.478</ele>
        <time>2011-08-05T17:15:26Z</time>
      </trkpt>
      <trkpt lat="37.1602" lon="-8.57014">
        <ele>5.531</ele>
        <time>2011-08-05T17:15:36Z</time>
      </trkpt>
      <trkpt lat="37.1604" lon="-8.56978">
        <ele>6.517</ele>
        <time>2011-08-05T17:15:40Z</time>
      </trkpt>
      <trkpt lat="37.16044" lon="-8.56948">
        <ele>7.981</ele>
        <time>2011-08-05T17:15:43Z</time>
      </trkpt>
      <trkpt lat="37.16097" lon="-8.56946">
        <ele>5.782</ele>
        <time>2011-08-05T17:15:49Z</time>
      </trkpt>
      <trkpt lat="37.16117" lon="-8.56934">
        <ele>5.16</ele>
        <time>2011-08-05T17:15:51Z</time>
      </trkpt>
      <trkpt lat="37.16149" lon="-8.56916">
        <ele>4.136</ele>
        <time>2011-08-05T17:15:54Z</time>
      </trkpt>
      <trkpt lat="37.16203" lon="-8.56912">
        <ele>2.412</ele>
        <time>2011-08-05T17:15:59Z</time>
      </trkpt>
      <trkpt lat="37.16222" lon="-8.56924">
        <ele>3.257</ele>
        <time>2011-08-05T17:16:01Z</time>
      </trkpt>
      <trkpt lat="37.16263" lon="-8.56922">
        <ele>2.764</ele>
        <time>2011-08-05T17:16:05Z</time>
      </trkpt>
      <trkpt lat="37.1628" lon="-8.56947">
        <ele>-1.834</ele>
        <time>2011-08-05T17:16:10Z</time>
      </trkpt>
      <trkpt lat="37.16418" lon="-8.56972">
        <ele>0.997</ele>
        <time>2011-08-05T17:16:18Z</time>
      </trkpt>
      <trkpt lat="37.16616" lon="-8.56998">
        <ele>15.995</ele>
        <time>2011-08-05T17:16:31Z</time>
      </trkpt>
      <trkpt lat="37.16754" lon="-8.56954">
        <ele>25.586</ele>
        <time>2011-08-05T17:16:40Z</time>
      </trkpt>
      <trkpt lat="37.16897" lon="-8.56847">
        <ele>34.924</ele>
        <time>2011-08-05T17:16:50Z</time>
      </trkpt>
      <trkpt lat="37.17067" lon="-8.56749">
        <ele>39.418</ele>
        <time>2011-08-05T17:17:01Z</time>
      </trkpt>
      <trkpt lat="37.17259" lon="-8.56715">
        <ele>42.325</ele>
        <time>2011-08-05T17:17:12Z</time>
      </trkpt>
      <trkpt lat="37.17437" lon="-8.56735">
        <ele>43.649</ele>
        <time>2011-08-05T17:17:22Z</time>
      </trkpt>
      <trkpt lat="37.17574" lon="-8.56773">
        <ele>39.948</ele>
        <time>2011-08-05T17:17:30Z</time>
      </trkpt>
      <trkpt lat="37.17633" lon="-8.56791">
        <ele>39.093</ele>
        <time>2011-08-05T17:17:34Z</time>
      </trkpt>
      <trkpt lat="37.17679" lon="-8.56767">
        <ele>43.373</ele>
        <time>2011-08-05T17:17:39Z</time>
      </trkpt>
      <trkpt lat="37.17684" lon="-8.5671">
        <ele>47.728</ele>
        <time>2011-08-05T17:17:44Z</time>
      </trkpt>
      <trkpt lat="37.17637" lon="-8.56687">
        <ele>51.947</ele>
        <time>2011-08-05T17:17:49Z</time>
      </trkpt>
      <trkpt lat="37.17602" lon="-8.56728">
        <ele>54.475</ele>
        <time>2011-08-05T17:17:53Z</time>
      </trkpt>
      <trkpt lat="37.17602" lon="-8.56728">
        <ele>54.385</ele>
        <time>2011-08-05T17:17:54Z</time>
      </trkpt>
      <trkpt lat="37.1757" lon="-8.56956">
        <ele>52.669</ele>
        <time>2011-08-05T17:18:03Z</time>
      </trkpt>
      <trkpt lat="37.17578" lon="-8.57166">
        <ele>44.101</ele>
        <time>2011-08-05T17:18:10Z</time>
      </trkpt>
      <trkpt lat="37.17628" lon="-8.57416">
        <ele>38.394</ele>
        <time>2011-08-05T17:18:18Z</time>
      </trkpt>
      <trkpt lat="37.17709" lon="-8.57625">
        <ele>30.904</ele>
        <time>2011-08-05T17:18:25Z</time>
      </trkpt>
      <trkpt lat="37.17882" lon="-8.57965">
        <ele>21.808</ele>
        <time>2011-08-05T17:18:36Z</time>
      </trkpt>
      <trkpt lat="37.18164" lon="-8.58523">
        <ele>32.275</ele>
        <time>2011-08-05T17:18:54Z</time>
      </trkpt>
      <trkpt lat="37.18291" lon="-8.58854">
        <ele>35.717</ele>
        <time>2011-08-05T17:19:04Z</time>
      </trkpt>
      <trkpt lat="37.18338" lon="-8.59106">
        <ele>34.097</ele>
        <time>2011-08-05T17:19:11Z</time>
      </trkpt>
      <trkpt lat="37.18348" lon="-8.59405">
        <ele>30.481</ele>
        <time>2011-08-05T17:19:19Z</time>
      </trkpt>
      <trkpt lat="37.1831" lon="-8.59698">
        <ele>32.82</ele>
        <time>2011-08-05T17:19:27Z</time>
      </trkpt>
      <trkpt lat="37.1823" lon="-8.59966">
        <ele>40.737</ele>
        <time>2011-08-05T17:19:35Z</time>
      </trkpt>
      <trkpt lat="37.18023" lon="-8.60549">
        <ele>36.73</ele>
        <time>2011-08-05T17:19:53Z</time>
      </trkpt>
      <trkpt lat="37.1789" lon="-8.61002">
        <ele>28.782</ele>
        <time>2011-08-05T17:20:06Z</time>
      </trkpt>
      <trkpt lat="37.17813" lon="-8.61427">
        <ele>30.235</ele>
        <time>2011-08-05T17:20:18Z</time>
      </trkpt>
      <trkpt lat="37.17721" lon="-8.61974">
        <ele>43.442</ele>
        <time>2011-08-05T17:20:34Z</time>
      </trkpt>
      <trkpt lat="37.17615" lon="-8.62293">
        <ele>55.02</ele>
        <time>2011-08-05T17:20:44Z</time>
      </trkpt>
      <trkpt lat="37.17419" lon="-8.62753">
        <ele>62.681</ele>
        <time>2011-08-05T17:20:59Z</time>
      </trkpt>
      <trkpt lat="37.17335" lon="-8.63043">
        <ele>70.195</ele>
        <time>2011-08-05T17:21:08Z</time>
      </trkpt>
      <trkpt lat="37.1728" lon="-8.63418">
        <ele>71.386</ele>
        <time>2011-08-05T17:21:19Z</time>
      </trkpt>
      <trkpt lat="37.17212" lon="-8.63987">
        <ele>55.921</ele>
        <time>2011-08-05T17:21:35Z</time>
      </trkpt>
      <trkpt lat="37.17145" lon="-8.64555">
        <ele>40.784</ele>
        <time>2011-08-05T17:21:51Z</time>
      </trkpt>
      <trkpt lat="37.17062" lon="-8.65307">
        <ele>36.764</ele>
        <time>2011-08-05T17:22:12Z</time>
      </trkpt>
      <trkpt lat="37.16982" lon="-8.65972">
        <ele>53.797</ele>
        <time>2011-08-05T17:22:31Z</time>
      </trkpt>
      <trkpt lat="37.16907" lon="-8.66377">
        <ele>64.153</ele>
        <time>2011-08-05T17:22:43Z</time>
      </trkpt>
      <trkpt lat="37.16799" lon="-8.66654">
        <ele>68.827</ele>
        <time>2011-08-05T17:22:52Z</time>
      </trkpt>
      <trkpt lat="37.16646" lon="-8.67034">
        <ele>66.545</ele>
        <time>2011-08-05T17:23:04Z</time>
      </trkpt>
      <trkpt lat="37.16564" lon="-8.67384">
        <ele>59.553</ele>
        <time>2011-08-05T17:23:14Z</time>
      </trkpt>
      <trkpt lat="37.1647" lon="-8.67847">
        <ele>45.346</ele>
        <time>2011-08-05T17:23:27Z</time>
      </trkpt>
      <trkpt lat="37.16359" lon="-8.68143">
        <ele>38.459</ele>
        <time>2011-08-05T17:23:36Z</time>
      </trkpt>
      <trkpt lat="37.16199" lon="-8.68413">
        <ele>30.912</ele>
        <time>2011-08-05T17:23:45Z</time>
      </trkpt>
      <trkpt lat="37.15951" lon="-8.68732">
        <ele>37.19</ele>
        <time>2011-08-05T17:23:57Z</time>
      </trkpt>
      <trkpt lat="37.15542" lon="-8.69262">
        <ele>52.407</ele>
        <time>2011-08-05T17:24:18Z</time>
      </trkpt>
      <trkpt lat="37.15368" lon="-8.69582">
        <ele>50.507</ele>
        <time>2011-08-05T17:24:29Z</time>
      </trkpt>
      <trkpt lat="37.15171" lon="-8.69977">
        <ele>51.301</ele>
        <time>2011-08-05T17:24:42Z</time>
      </trkpt>
      <trkpt lat="37.15012" lon="-8.70176">
        <ele>44.477</ele>
        <time>2011-08-05T17:24:50Z</time>
      </trkpt>
      <trkpt lat="37.14744" lon="-8.705">
        <ele>33.644</ele>
        <time>2011-08-05T17:25:03Z</time>
      </trkpt>
      <trkpt lat="37.1441" lon="-8.70994">
        <ele>24.83</ele>
        <time>2011-08-05T17:25:21Z</time>
      </trkpt>
      <trkpt lat="37.14297" lon="-8.71216">
        <ele>33.899</ele>
        <time>2011-08-05T17:25:29Z</time>
      </trkpt>
      <trkpt lat="37.14227" lon="-8.71427">
        <ele>45.455</ele>
        <time>2011-08-05T17:25:37Z</time>
      </trkpt>
      <trkpt lat="37.14194" lon="-8.71606">
        <ele>51.469</ele>
        <time>2011-08-05T17:25:45Z</time>
      </trkpt>
      <trkpt lat="37.14189" lon="-8.71702">
        <ele>55.83</ele>
        <time>2011-08-05T17:25:51Z</time>
      </trkpt>
      <trkpt lat="37.14233" lon="-8.718">
        <ele>58.954</ele>
        <time>2011-08-05T17:25:59Z</time>
      </trkpt>
      <trkpt lat="37.14241" lon="-8.7181">
        <ele>59.446</ele>
        <time>2011-08-05T17:26:00Z</time>
      </trkpt>
      <trkpt lat="37.14265" lon="-8.7184">
        <ele>60.334</ele>
        <time>2011-08-05T17:26:03Z</time>
      </trkpt>
      <trkpt lat="37.1428" lon="-8.71918">
        <ele>64.706</ele>
        <time>2011-08-05T17:26:09Z</time>
      </trkpt>
      <trkpt lat="37.1423" lon="-8.71956">
        <ele>69.222</ele>
        <time>2011-08-05T17:26:14Z</time>
      </trkpt>
      <trkpt lat="37.14216" lon="-8.71958">
        <ele>69.765</ele>
        <time>2011-08-05T17:26:15Z</time>
      </trkpt>
      <trkpt lat="37.14036" lon="-8.7198">
        <ele>68.92</ele>
        <time>2011-08-05T17:26:29Z</time>
      </trkpt>
      <trkpt lat="37.13847" lon="-8.71993">
        <ele>67.882</ele>
        <time>2011-08-05T17:26:37Z</time>
      </trkpt>
      <trkpt lat="37.13674" lon="-8.71929">
        <ele>62.157</ele>
        <time>2011-08-05T17:26:45Z</time>
      </trkpt>
      <trkpt lat="37.13532" lon="-8.71801">
        <ele>53.784</ele>
        <time>2011-08-05T17:26:52Z</time>
      </trkpt>
      <trkpt lat="37.1342" lon="-8.71615">
        <ele>45.786</ele>
        <time>2011-08-05T17:26:59Z</time>
      </trkpt>
      <trkpt lat="37.13285" lon="-8.71352">
        <ele>41.41</ele>
        <time>2011-08-05T17:27:08Z</time>
      </trkpt>
      <trkpt lat="37.13126" lon="-8.71195">
        <ele>42.055</ele>
        <time>2011-08-05T17:27:15Z</time>
      </trkpt>
      <trkpt lat="37.12957" lon="-8.71105">
        <ele>42.66</ele>
        <time>2011-08-05T17:27:21Z</time>
      </trkpt>
      <trkpt lat="37.12544" lon="-8.70913">
        <ele>45.503</ele>
        <time>2011-08-05T17:27:35Z</time>
      </trkpt>
      <trkpt lat="37.12259" lon="-8.70777">
        <ele>47.744</ele>
        <time>2011-08-05T17:27:46Z</time>
      </trkpt>
      <trkpt lat="37.12043" lon="-8.70635">
        <ele>54.008</ele>
        <time>2011-08-05T17:27:55Z</time>
      </trkpt>
      <trkpt lat="37.1186" lon="-8.70452">
        <ele>65.334</ele>
        <time>2011-08-05T17:28:04Z</time>
      </trkpt>
      <trkpt lat="37.11618" lon="-8.70224">
        <ele>78.637</ele>
        <time>2011-08-05T17:28:16Z</time>
      </trkpt>
      <trkpt lat="37.11416" lon="-8.70109">
        <ele>74.091</ele>
        <time>2011-08-05T17:28:25Z</time>
      </trkpt>
      <trkpt lat="37.11169" lon="-8.69967">
        <ele>61.166</ele>
        <time>2011-08-05T17:28:36Z</time>
      </trkpt>
      <trkpt lat="37.11053" lon="-8.69859">
        <ele>45.519</ele>
        <time>2011-08-05T17:28:43Z</time>
      </trkpt>
      <trkpt lat="37.10922" lon="-8.69754">
        <ele>31.328</ele>
        <time>2011-08-05T17:28:52Z</time>
      </trkpt>
      <trkpt lat="37.10898" lon="-8.69741">
        <ele>30.419</ele>
        <time>2011-08-05T17:28:54Z</time>
      </trkpt>
      <trkpt lat="37.10854" lon="-8.69755">
        <ele>36.022</ele>
        <time>2011-08-05T17:28:59Z</time>
      </trkpt>
      <trkpt lat="37.10805" lon="-8.69704">
        <ele>40.286</ele>
        <time>2011-08-05T17:29:05Z</time>
      </trkpt>
      <trkpt lat="37.1075" lon="-8.69689">
        <ele>42.484</ele>
        <time>2011-08-05T17:29:10Z</time>
      </trkpt>
      <trkpt lat="37.10608" lon="-8.69665">
        <ele>48.665</ele>
        <time>2011-08-05T17:29:19Z</time>
      </trkpt>
      <trkpt lat="37.10467" lon="-8.69618">
        <ele>50.213</ele>
        <time>2011-08-05T17:29:27Z</time>
      </trkpt>
      <trkpt lat="37.10338" lon="-8.69516">
        <ele>51.419</ele>
        <time>2011-08-05T17:29:35Z</time>
      </trkpt>
      <trkpt lat="37.10307" lon="-8.69494">
        <ele>52.558</ele>
        <time>2011-08-05T17:29:37Z</time>
      </trkpt>
      <trkpt lat="37.1025" lon="-8.69469">
        <ele>52.048</ele>
        <time>2011-08-05T17:29:41Z</time>
      </trkpt>
      <trkpt lat="37.1023" lon="-8.69465">
        <ele>51.545</ele>
        <time>2011-08-05T17:29:43Z</time>
      </trkpt>
      <trkpt lat="37.10195" lon="-8.69485">
        <ele>52.88</ele>
        <time>2011-08-05T17:29:48Z</time>
      </trkpt>
      <trkpt lat="37.10143" lon="-8.69483">
        <ele>52.787</ele>
        <time>2011-08-05T17:29:55Z</time>
      </trkpt>
      <trkpt lat="37.10142" lon="-8.6944">
        <ele>49.892</ele>
        <time>2011-08-05T17:30:00Z</time>
      </trkpt>
      <trkpt lat="37.10148" lon="-8.69431">
        <ele>49.568</ele>
        <time>2011-08-05T17:30:01Z</time>
      </trkpt>
      <trkpt lat="37.10164" lon="-8.69404">
        <ele>48.544</ele>
        <time>2011-08-05T17:30:03Z</time>
      </trkpt>
      <trkpt lat="37.10159" lon="-8.69277">
        <ele>44.476</ele>
        <time>2011-08-05T17:30:10Z</time>
      </trkpt>
      <trkpt lat="37.10145" lon="-8.69018">
        <ele>45.347</ele>
        <time>2011-08-05T17:30:24Z</time>
      </trkpt>
      <trkpt lat="37.10142" lon="-8.68971">
        <ele>44.771</ele>
        <time>2011-08-05T17:30:29Z</time>
      </trkpt>
      <trkpt lat="37.10141" lon="-8.68958">
        <ele>44.383</ele>
        <time>2011-08-05T17:30:38Z</time>
      </trkpt>
      <trkpt lat="37.10136" lon="-8.68884">
        <ele>45.788</ele>
        <time>2011-08-05T17:30:50Z</time>
      </trkpt>
      <trkpt lat="37.10135" lon="-8.68871">
        <ele>45.752</ele>
        <time>2011-08-05T17:30:59Z</time>
      </trkpt>
      <trkpt lat="37.10127" lon="-8.68838">
        <ele>45.637</ele>
        <time>2011-08-05T17:31:07Z</time>
      </trkpt>
      <trkpt lat="37.1012" lon="-8.68815">
        <ele>45.123</ele>
        <time>2011-08-05T17:31:15Z</time>
      </trkpt>
      <trkpt lat="37.10116" lon="-8.68802">
        <ele>45.279</ele>
        <time>2011-08-05T17:31:17Z</time>
      </trkpt>
      <trkpt lat="37.10108" lon="-8.68786">
        <ele>45.305</ele>
        <time>2011-08-05T17:31:19Z</time>
      </trkpt>
      <trkpt lat="37.10106" lon="-8.68727">
        <ele>45.349</ele>
        <time>2011-08-05T17:31:25Z</time>
      </trkpt>
      <trkpt lat="37.10084" lon="-8.68571">
        <ele>43.303</ele>
        <time>2011-08-05T17:31:38Z</time>
      </trkpt>
      <trkpt lat="37.10045" lon="-8.68354">
        <ele>37.592</ele>
        <time>2011-08-05T17:31:54Z</time>
      </trkpt>
      <trkpt lat="37.10025" lon="-8.68243">
        <ele>33.861</ele>
        <time>2011-08-05T17:32:06Z</time>
      </trkpt>
      <trkpt lat="37.10024" lon="-8.68236">
        <ele>34.648</ele>
        <time>2011-08-05T17:32:14Z</time>
      </trkpt>
      <trkpt lat="37.10019" lon="-8.68205">
        <ele>34.749</ele>
        <time>2011-08-05T17:32:31Z</time>
      </trkpt>
      <trkpt lat="37.10005" lon="-8.68105">
        <ele>37.106</ele>
        <time>2011-08-05T17:32:40Z</time>
      </trkpt>
      <trkpt lat="37.09981" lon="-8.68042">
        <ele>37.859</ele>
        <time>2011-08-05T17:32:45Z</time>
      </trkpt>
      <trkpt lat="37.09952" lon="-8.67999">
        <ele>38.306</ele>
        <time>2011-08-05T17:32:49Z</time>
      </trkpt>
      <trkpt lat="37.09854" lon="-8.67924">
        <ele>41.17</ele>
        <time>2011-08-05T17:33:00Z</time>
      </trkpt>
      <trkpt lat="37.09802" lon="-8.67889">
        <ele>40.075</ele>
        <time>2011-08-05T17:33:08Z</time>
      </trkpt>
      <trkpt lat="37.09799" lon="-8.67867">
        <ele>40.185</ele>
        <time>2011-08-05T17:33:13Z</time>
      </trkpt>
      <trkpt lat="37.09805" lon="-8.67857">
        <ele>40.2</ele>
        <time>2011-08-05T17:33:15Z</time>
      </trkpt>
      <trkpt lat="37.09866" lon="-8.67755">
        <ele>29.066</ele>
        <time>2011-08-05T17:33:38Z</time>
      </trkpt>
      <trkpt lat="37.0984" lon="-8.67747">
        <ele>27.198</ele>
        <time>2011-08-05T17:33:43Z</time>
      </trkpt>
      <trkpt lat="37.09824" lon="-8.67745">
        <ele>26.259</ele>
        <time>2011-08-05T17:33:47Z</time>
      </trkpt>
      <trkpt lat="37.09825" lon="-8.67745">
        <ele>27.031</ele>
        <time>2011-08-05T17:33:51Z</time>
      </trkpt>
      <trkpt lat="37.09795" lon="-8.67746">
        <ele>26.034</ele>
        <time>2011-08-05T17:34:03Z</time>
      </trkpt>
      <trkpt lat="37.09757" lon="-8.67725">
        <ele>24.814</ele>
        <time>2011-08-05T17:34:13Z</time>
      </trkpt>
      <trkpt lat="37.09752" lon="-8.67721">
        <ele>23.305</ele>
        <time>2011-08-05T17:34:16Z</time>
      </trkpt>
      <trkpt lat="37.09766" lon="-8.67718">
        <ele>22.355</ele>
        <time>2011-08-05T17:34:19Z</time>
      </trkpt>
      <trkpt lat="37.09774" lon="-8.67701">
        <ele>19.37</ele>
        <time>2011-08-05T17:34:26Z</time>
      </trkpt>
      <trkpt lat="37.09738" lon="-8.6767">
        <ele>17.974</ele>
        <time>2011-08-05T17:34:30Z</time>
      </trkpt>
      <trkpt lat="37.09696" lon="-8.6764">
        <ele>15.477</ele>
        <time>2011-08-05T17:34:40Z</time>
      </trkpt>
      <trkpt lat="37.09696" lon="-8.6764">
        <ele>15.159</ele>
        <time>2011-08-05T17:35:03Z</time>
      </trkpt>
      <trkpt lat="37.09696" lon="-8.6764">
        <ele>15.196</ele>
        <time>2011-08-05T17:35:11Z</time>
      </trkpt>
      <trkpt lat="37.09691" lon="-8.67618">
        <ele>15.468</ele>
        <time>2011-08-05T17:35:16Z</time>
      </trkpt>
      <trkpt lat="37.09728" lon="-8.67518">
        <ele>14.214</ele>
        <time>2011-08-05T17:35:28Z</time>
      </trkpt>
      <trkpt lat="37.09729" lon="-8.67505">
        <ele>14.336</ele>
        <time>2011-08-05T17:35:29Z</time>
      </trkpt>
      <trkpt lat="37.09721" lon="-8.67442">
        <ele>13.523</ele>
        <time>2011-08-05T17:35:34Z</time>
      </trkpt>
      <trkpt lat="37.09715" lon="-8.67418">
        <ele>12.868</ele>
        <time>2011-08-05T17:35:37Z</time>
      </trkpt>
      <trkpt lat="37.09708" lon="-8.67374">
        <ele>12.009</ele>
        <time>2011-08-05T17:35:44Z</time>
      </trkpt>
      <trkpt lat="37.09736" lon="-8.67368">
        <ele>10.365</ele>
        <time>2011-08-05T17:35:51Z</time>
      </trkpt>
      <trkpt lat="37.09791" lon="-8.67341">
        <ele>9.358</ele>
        <time>2011-08-05T17:36:01Z</time>
      </trkpt>
      <trkpt lat="37.09799" lon="-8.67337">
        <ele>9.818</ele>
        <time>2011-08-05T17:36:10Z</time>
      </trkpt>
      <trkpt lat="37.09807" lon="-8.67333">
        <ele>10.965</ele>
        <time>2011-08-05T17:36:26Z</time>
      </trkpt>
      <trkpt lat="37.0982" lon="-8.67326">
        <ele>12.424</ele>
        <time>2011-08-05T17:36:37Z</time>
      </trkpt>
      <trkpt lat="37.09826" lon="-8.67322">
        <ele>13.902</ele>
        <time>2011-08-05T17:36:52Z</time>
      </trkpt>
      <trkpt lat="37.09826" lon="-8.67322">
        <ele>13.88</ele>
        <time>2011-08-05T17:36:55Z</time>
      </trkpt>
      <trkpt lat="37.09841" lon="-8.67305">
        <ele>15.117</ele>
        <time>2011-08-05T17:37:07Z</time>
      </trkpt>
      <trkpt lat="37.09846" lon="-8.67298">
        <ele>14.693</ele>
        <time>2011-08-05T17:37:14Z</time>
      </trkpt>
      <trkpt lat="37.09868" lon="-8.67269">
        <ele>14.938</ele>
        <time>2011-08-05T17:37:25Z</time>
      </trkpt>
      <trkpt lat="37.09895" lon="-8.67238">
        <ele>15.94</ele>
        <time>2011-08-05T17:37:38Z</time>
      </trkpt>
      <trkpt lat="37.09895" lon="-8.67238">
        <ele>16.515</ele>
        <time>2011-08-05T17:37:49Z</time>
      </trkpt>
      <trkpt lat="37.0991" lon="-8.67226">
        <ele>16.091</ele>
        <time>2011-08-05T17:38:00Z</time>
      </trkpt>
      <trkpt lat="37.0991" lon="-8.67226">
        <ele>16.028</ele>
        <time>2011-08-05T17:38:01Z</time>
      </trkpt>
      <trkpt lat="37.09907" lon="-8.67225">
        <ele>15.808</ele>
        <time>2011-08-05T17:38:07Z</time>
      </trkpt>
      <trkpt lat="37.09941" lon="-8.67228">
        <ele>14.276</ele>
        <time>2011-08-05T17:38:16Z</time>
      </trkpt>
      <trkpt lat="37.09953" lon="-8.67236">
        <ele>13.618</ele>
        <time>2011-08-05T17:38:28Z</time>
      </trkpt>
      <trkpt lat="37.09953" lon="-8.67236">
        <ele>13.686</ele>
        <time>2011-08-05T17:38:37Z</time>
      </trkpt>
      <trkpt lat="37.09967" lon="-8.67242">
        <ele>13.184</ele>
        <time>2011-08-05T17:38:41Z</time>
      </trkpt>
      <trkpt lat="37.09984" lon="-8.6725">
        <ele>12.905</ele>
        <time>2011-08-05T17:38:49Z</time>
      </trkpt>
      <trkpt lat="37.1001" lon="-8.67276">
        <ele>16.126</ele>
        <time>2011-08-05T17:39:02Z</time>
      </trkpt>
      <trkpt lat="37.10014" lon="-8.67278">
        <ele>16.839</ele>
        <time>2011-08-05T17:39:09Z</time>
      </trkpt>
      <trkpt lat="37.10013" lon="-8.67306">
        <ele>16.876</ele>
        <time>2011-08-05T17:39:22Z</time>
      </trkpt>
      <trkpt lat="37.10014" lon="-8.67336">
        <ele>15.366</ele>
        <time>2011-08-05T17:39:34Z</time>
      </trkpt>
      <trkpt lat="37.10017" lon="-8.67376">
        <ele>14.895</ele>
        <time>2011-08-05T17:39:47Z</time>
      </trkpt>
      <trkpt lat="37.10019" lon="-8.67416">
        <ele>10.563</ele>
        <time>2011-08-05T17:39:59Z</time>
      </trkpt>
      <trkpt lat="37.10019" lon="-8.6745">
        <ele>8.873</ele>
        <time>2011-08-05T17:40:10Z</time>
      </trkpt>
      <trkpt lat="37.10019" lon="-8.67452">
        <ele>9.191</ele>
        <time>2011-08-05T17:40:21Z</time>
      </trkpt>
      <trkpt lat="37.10022" lon="-8.6747">
        <ele>9.309</ele>
        <time>2011-08-05T17:40:29Z</time>
      </trkpt>
      <trkpt lat="37.10025" lon="-8.67504">
        <ele>9.404</ele>
        <time>2011-08-05T17:40:38Z</time>
      </trkpt>
      <trkpt lat="37.10042" lon="-8.67535">
        <ele>9.852</ele>
        <time>2011-08-05T17:40:44Z</time>
      </trkpt>
      <trkpt lat="37.10066" lon="-8.67568">
        <ele>11.042</ele>
        <time>2011-08-05T17:40:51Z</time>
      </trkpt>
      <trkpt lat="37.1007" lon="-8.67568">
        <ele>10.989</ele>
        <time>2011-08-05T17:40:55Z</time>
      </trkpt>
      <trkpt lat="37.10066" lon="-8.67568">
        <ele>11.103</ele>
        <time>2011-08-05T17:40:58Z</time>
      </trkpt>
      <trkpt lat="37.10068" lon="-8.67579">
        <ele>11.311</ele>
        <time>2011-08-05T17:41:02Z</time>
      </trkpt>
      <trkpt lat="37.1007" lon="-8.67591">
        <ele>12.218</ele>
        <time>2011-08-05T17:41:06Z</time>
      </trkpt>
      <trkpt lat="37.10072" lon="-8.67598">
        <ele>13.54</ele>
        <time>2011-08-05T17:41:17Z</time>
      </trkpt>
      <trkpt lat="37.10072" lon="-8.67598">
        <ele>13.546</ele>
        <time>2011-08-05T17:41:18Z</time>
      </trkpt>
      <trkpt lat="37.10078" lon="-8.67568">
        <ele>14.481</ele>
        <time>2011-08-05T17:41:23Z</time>
      </trkpt>
      <trkpt lat="37.10112" lon="-8.67564">
        <ele>15.945</ele>
        <time>2011-08-05T17:41:40Z</time>
      </trkpt>
      <trkpt lat="37.10113" lon="-8.67564">
        <ele>16.231</ele>
        <time>2011-08-05T17:41:44Z</time>
      </trkpt>
      <trkpt lat="37.10113" lon="-8.67564">
        <ele>16.381</ele>
        <time>2011-08-05T17:42:01Z</time>
      </trkpt>
      <trkpt lat="37.10113" lon="-8.67564">
        <ele>16.391</ele>
        <time>2011-08-05T17:43:23Z</time>
      </trkpt>
      <trkpt lat="37.10113" lon="-8.67564">
        <ele>16.392</ele>
        <time>2011-08-05T17:44:08Z</time>
      </trkpt>
      <trkpt lat="37.10113" lon="-8.67564">
        <ele>16.372</ele>
        <time>2011-08-05T17:45:08Z</time>
      </trkpt>
      <trkpt lat="37.10113" lon="-8.67564">
        <ele>16.572</ele>
        <time>2011-08-05T17:45:23Z</time>
      </trkpt>
      <trkpt lat="37.10113" lon="-8.67564">
        <ele>16.42</ele>
        <time>2011-08-05T17:45:32Z</time>
      </trkpt>
      <trkpt lat="37.10113" lon="-8.67564">
        <ele>17.484</ele>
        <time>2011-08-05T17:45:46Z</time>
      </trkpt>
      <trkpt lat="37.10113" lon="-8.67564">
        <ele>17.229</ele>
        <time>2011-08-05T17:45:53Z</time>
      </trkpt>
      <trkpt lat="37.10113" lon="-8.67564">
        <ele>16.982</ele>
        <time>2011-08-05T17:45:56Z</time>
      </trkpt>
      <trkpt lat="37.10113" lon="-8.67564">
        <ele>16.249</ele>
        <time>2011-08-05T17:46:09Z</time>
      </trkpt>
      <trkpt lat="37.10113" lon="-8.67564">
        <ele>15.289</ele>
        <time>2011-08-05T17:46:40Z</time>
      </trkpt>
      <trkpt lat="37.10113" lon="-8.67564">
        <ele>14.631</ele>
        <time>2011-08-05T17:47:00Z</time>
      </trkpt>
      <trkpt lat="37.10113" lon="-8.67564">
        <ele>14.775</ele>
        <time>2011-08-05T17:48:18Z</time>
      </trkpt>
      <trkpt lat="37.10113" lon="-8.67564">
        <ele>15.304</ele>
        <time>2011-08-05T17:48:35Z</time>
      </trkpt>
      <trkpt lat="37.10113" lon="-8.67564">
        <ele>15.542</ele>
        <time>2011-08-05T17:48:54Z</time>
      </trkpt>
      <trkpt lat="37.10113" lon="-8.67564">
        <ele>16.46</ele>
        <time>2011-08-05T17:49:30Z</time>
      </trkpt>
      <trkpt lat="37.10113" lon="-8.67564">
        <ele>15.749</ele>
        <time>2011-08-05T17:49:52Z</time>
      </trkpt>
      <trkpt lat="37.10113" lon="-8.67564">
        <ele>14.342</ele>
        <time>2011-08-05T17:51:02Z</time>
      </trkpt>
      <trkpt lat="37.10113" lon="-8.67564">
        <ele>14.301</ele>
        <time>2011-08-05T17:51:44Z</time>
      </trkpt>
      <trkpt lat="37.10113" lon="-8.67564">
        <ele>14.35</ele>
        <time>2011-08-05T17:52:27Z</time>
      </trkpt>
      <trkpt lat="37.10113" lon="-8.67564">
        <ele>12.657</ele>
        <time>2011-08-05T17:53:10Z</time>
      </trkpt>
      <trkpt lat="37.10079" lon="-8.67568">
        <ele>14.401</ele>
        <time>2011-08-05T17:53:19Z</time>
      </trkpt>
      <trkpt lat="37.10079" lon="-8.67568">
        <ele>12.871</ele>
        <time>2011-08-05T17:53:56Z</time>
      </trkpt>
      <trkpt lat="37.10079" lon="-8.67568">
        <ele>12.595</ele>
        <time>2011-08-05T17:54:21Z</time>
      </trkpt>
      <trkpt lat="37.10079" lon="-8.67568">
        <ele>7.304</ele>
        <time>2011-08-05T17:55:15Z</time>
      </trkpt>
      <trkpt lat="37.10068" lon="-8.67579">
        <ele>9.41</ele>
        <time>2011-08-05T17:55:21Z</time>
      </trkpt>
      <trkpt lat="37.10069" lon="-8.67585">
        <ele>10.158</ele>
        <time>2011-08-05T17:55:24Z</time>
      </trkpt>
      <trkpt lat="37.10079" lon="-8.67568">
        <ele>11.505</ele>
        <time>2011-08-05T17:55:29Z</time>
      </trkpt>
      <trkpt lat="37.10072" lon="-8.67597">
        <ele>13.287</ele>
        <time>2011-08-05T17:55:34Z</time>
      </trkpt>
      <trkpt lat="37.10082" lon="-8.67568">
        <ele>14.05</ele>
        <time>2011-08-05T17:55:38Z</time>
      </trkpt>
      <trkpt lat="37.10086" lon="-8.67567">
        <ele>14.989</ele>
        <time>2011-08-05T17:55:42Z</time>
      </trkpt>
      <trkpt lat="37.10088" lon="-8.67567">
        <ele>13.927</ele>
        <time>2011-08-05T17:55:52Z</time>
      </trkpt>
      <trkpt lat="37.10113" lon="-8.67564">
        <ele>11.366</ele>
        <time>2011-08-05T17:56:10Z</time>
      </trkpt>
      <trkpt lat="37.10113" lon="-8.67564">
        <ele>11.419</ele>
        <time>2011-08-05T17:56:27Z</time>
      </trkpt>
      <trkpt lat="37.10113" lon="-8.67564">
        <ele>11.59</ele>
        <time>2011-08-05T17:56:32Z</time>
      </trkpt>
      <trkpt lat="37.10113" lon="-8.67564">
        <ele>11.996</ele>
        <time>2011-08-05T17:56:43Z</time>
      </trkpt>
      <trkpt lat="37.10113" lon="-8.67564">
        <ele>12.082</ele>
        <time>2011-08-05T17:56:47Z</time>
      </trkpt>
      <trkpt lat="37.10095" lon="-8.67643">
        <ele>11.886</ele>
        <time>2011-08-05T17:57:03Z</time>
      </trkpt>
      <trkpt lat="37.10093" lon="-8.67642">
        <ele>11.924</ele>
        <time>2011-08-05T17:57:08Z</time>
      </trkpt>
      <trkpt lat="37.10093" lon="-8.67642">
        <ele>11.982</ele>
        <time>2011-08-05T17:57:10Z</time>
      </trkpt>
      <trkpt lat="37.10084" lon="-8.67641">
        <ele>12.558</ele>
        <time>2011-08-05T17:57:25Z</time>
      </trkpt>
      <trkpt lat="37.10084" lon="-8.67641">
        <ele>12.673</ele>
        <time>2011-08-05T17:57:27Z</time>
      </trkpt>
      <trkpt lat="37.10083" lon="-8.67641">
        <ele>13.011</ele>
        <time>2011-08-05T17:57:37Z</time>
      </trkpt>
      <trkpt lat="37.10083" lon="-8.67641">
        <ele>13.194</ele>
        <time>2011-08-05T17:57:53Z</time>
      </trkpt>
      <trkpt lat="37.10083" lon="-8.67641">
        <ele>12.73</ele>
        <time>2011-08-05T17:59:18Z</time>
      </trkpt>
      <trkpt lat="37.10083" lon="-8.67641">
        <ele>13.173</ele>
        <time>2011-08-05T17:59:51Z</time>
      </trkpt>
      <trkpt lat="37.10079" lon="-8.67568">
        <ele>14.018</ele>
        <time>2011-08-05T18:00:01Z</time>
      </trkpt>
      <trkpt lat="37.10079" lon="-8.67568">
        <ele>13.652</ele>
        <time>2011-08-05T18:00:45Z</time>
      </trkpt>
      <trkpt lat="37.10079" lon="-8.67568">
        <ele>13.855</ele>
        <time>2011-08-05T18:04:34Z</time>
      </trkpt>
      <trkpt lat="37.10079" lon="-8.67568">
        <ele>13.837</ele>
        <time>2011-08-05T18:05:24Z</time>
      </trkpt>
      <trkpt lat="37.10079" lon="-8.67568">
        <ele>13.119</ele>
        <time>2011-08-05T18:05:28Z</time>
      </trkpt>
      <trkpt lat="37.10079" lon="-8.67568">
        <ele>10.586</ele>
        <time>2011-08-05T18:05:47Z</time>
      </trkpt>
      <trkpt lat="37.10079" lon="-8.67568">
        <ele>9.11</ele>
        <time>2011-08-05T18:05:59Z</time>
      </trkpt>
      <trkpt lat="37.10102" lon="-8.67565">
        <ele>8.269</ele>
        <time>2011-08-05T18:06:18Z</time>
      </trkpt>
      <trkpt lat="37.10102" lon="-8.67565">
        <ele>8.693</ele>
        <time>2011-08-05T18:06:36Z</time>
      </trkpt>
      <trkpt lat="37.10102" lon="-8.67565">
        <ele>8.049</ele>
        <time>2011-08-05T18:07:19Z</time>
      </trkpt>
      <trkpt lat="37.10102" lon="-8.67565">
        <ele>7.965</ele>
        <time>2011-08-05T18:08:20Z</time>
      </trkpt>
      <trkpt lat="37.10139" lon="-8.67547">
        <ele>8.972</ele>
        <time>2011-08-05T18:08:33Z</time>
      </trkpt>
      <trkpt lat="37.10139" lon="-8.67547">
        <ele>7.97</ele>
        <time>2011-08-05T18:08:46Z</time>
      </trkpt>
      <trkpt lat="37.10139" lon="-8.67547">
        <ele>4.254</ele>
        <time>2011-08-05T18:09:20Z</time>
      </trkpt>
      <trkpt lat="37.10139" lon="-8.67547">
        <ele>1.814</ele>
        <time>2011-08-05T18:09:37Z</time>
      </trkpt>
      <trkpt lat="37.10139" lon="-8.67547">
        <ele>0.148</ele>
        <time>2011-08-05T18:10:05Z</time>
      </trkpt>
      <trkpt lat="37.10139" lon="-8.67547">
        <ele>0.272</ele>
        <time>2011-08-05T18:10:09Z</time>
      </trkpt>
      <trkpt lat="37.10124" lon="-8.67481">
        <ele>0.749</ele>
        <time>2011-08-05T18:10:20Z</time>
      </trkpt>
      <trkpt lat="37.10124" lon="-8.67481">
        <ele>1.084</ele>
        <time>2011-08-05T18:14:59Z</time>
      </trkpt>
      <trkpt lat="37.10147" lon="-8.67478">
        <ele>-0.246</ele>
        <time>2011-08-05T18:15:19Z</time>
      </trkpt>
      <trkpt lat="37.10161" lon="-8.67464">
        <ele>-1.487</ele>
        <time>2011-08-05T18:15:38Z</time>
      </trkpt>
      <trkpt lat="37.10179" lon="-8.67442">
        <ele>0.975</ele>
        <time>2011-08-05T18:15:57Z</time>
      </trkpt>
      <trkpt lat="37.10184" lon="-8.67435">
        <ele>0.432</ele>
        <time>2011-08-05T18:16:12Z</time>
      </trkpt>
      <trkpt lat="37.10184" lon="-8.67435">
        <ele>1.088</ele>
        <time>2011-08-05T18:16:27Z</time>
      </trkpt>
      <trkpt lat="37.10177" lon="-8.67443">
        <ele>0.535</ele>
        <time>2011-08-05T18:16:31Z</time>
      </trkpt>
      <trkpt lat="37.10177" lon="-8.67443">
        <ele>-0.121</ele>
        <time>2011-08-05T18:16:56Z</time>
      </trkpt>
      <trkpt lat="37.10147" lon="-8.67413">
        <ele>-0.363</ele>
        <time>2011-08-05T18:17:19Z</time>
      </trkpt>
      <trkpt lat="37.10147" lon="-8.67413">
        <ele>-0.796</ele>
        <time>2011-08-05T18:17:33Z</time>
      </trkpt>
      <trkpt lat="37.10147" lon="-8.67413">
        <ele>-0.027</ele>
        <time>2011-08-05T18:17:37Z</time>
      </trkpt>
      <trkpt lat="37.10157" lon="-8.67398">
        <ele>-2.906</ele>
        <time>2011-08-05T18:17:59Z</time>
      </trkpt>
      <trkpt lat="37.10157" lon="-8.67398">
        <ele>-3.193</ele>
        <time>2011-08-05T18:18:00Z</time>
      </trkpt>
      <trkpt lat="37.1014" lon="-8.67372">
        <ele>-3.85</ele>
        <time>2011-08-05T18:18:04Z</time>
      </trkpt>
      <trkpt lat="37.10127" lon="-8.67364">
        <ele>-6.224</ele>
        <time>2011-08-05T18:18:22Z</time>
      </trkpt>
      <trkpt lat="37.10127" lon="-8.67364">
        <ele>-2.688</ele>
        <time>2011-08-05T18:18:40Z</time>
      </trkpt>
      <trkpt lat="37.10096" lon="-8.67348">
        <ele>0.739</ele>
        <time>2011-08-05T18:19:00Z</time>
      </trkpt>
      <trkpt lat="37.10081" lon="-8.67343">
        <ele>1.652</ele>
        <time>2011-08-05T18:19:09Z</time>
      </trkpt>
      <trkpt lat="37.10081" lon="-8.67343">
        <ele>3.185</ele>
        <time>2011-08-05T18:19:19Z</time>
      </trkpt>
      <trkpt lat="37.10065" lon="-8.67338">
        <ele>3.662</ele>
        <time>2011-08-05T18:19:32Z</time>
      </trkpt>
      <trkpt lat="37.10065" lon="-8.67338">
        <ele>3.098</ele>
        <time>2011-08-05T18:19:34Z</time>
      </trkpt>
      <trkpt lat="37.10065" lon="-8.67338">
        <ele>2.352</ele>
        <time>2011-08-05T18:19:40Z</time>
      </trkpt>
      <trkpt lat="37.10044" lon="-8.67332">
        <ele>1.361</ele>
        <time>2011-08-05T18:19:46Z</time>
      </trkpt>
      <trkpt lat="37.10044" lon="-8.67332">
        <ele>1.083</ele>
        <time>2011-08-05T18:19:50Z</time>
      </trkpt>
      <trkpt lat="37.10014" lon="-8.67323">
        <ele>-1.397</ele>
        <time>2011-08-05T18:20:10Z</time>
      </trkpt>
      <trkpt lat="37.10014" lon="-8.67323">
        <ele>-1.924</ele>
        <time>2011-08-05T18:20:16Z</time>
      </trkpt>
      <trkpt lat="37.10016" lon="-8.67239">
        <ele>-2.421</ele>
        <time>2011-08-05T18:20:23Z</time>
      </trkpt>
      <trkpt lat="37.09986" lon="-8.67229">
        <ele>-4.898</ele>
        <time>2011-08-05T18:20:42Z</time>
      </trkpt>
      <trkpt lat="37.09986" lon="-8.67229">
        <ele>-5.07</ele>
        <time>2011-08-05T18:20:56Z</time>
      </trkpt>
      <trkpt lat="37.09986" lon="-8.67229">
        <ele>-3.982</ele>
        <time>2011-08-05T18:21:12Z</time>
      </trkpt>
      <trkpt lat="37.09986" lon="-8.67229">
        <ele>-3.396</ele>
        <time>2011-08-05T18:21:22Z</time>
      </trkpt>
      <trkpt lat="37.09986" lon="-8.67229">
        <ele>-3.546</ele>
        <time>2011-08-05T18:21:39Z</time>
      </trkpt>
      <trkpt lat="37.09986" lon="-8.67229">
        <ele>-3.077</ele>
        <time>2011-08-05T18:21:55Z</time>
      </trkpt>
      <trkpt lat="37.09986" lon="-8.67229">
        <ele>-2.208</ele>
        <time>2011-08-05T18:22:07Z</time>
      </trkpt>
      <trkpt lat="37.09986" lon="-8.67229">
        <ele>0.774</ele>
        <time>2011-08-05T18:22:29Z</time>
      </trkpt>
      <trkpt lat="37.09986" lon="-8.67229">
        <ele>1.38</ele>
        <time>2011-08-05T18:22:51Z</time>
      </trkpt>
    </trkseg>
  </trk>
</gpx>